Time;durP1;ratioP1;P1;durP2;ratioP2;P2;SDS_P1;SDS_P2;PMS_P1;PMS_P2;Temp;Humidity;BMP_temperature;BMP_pressure;BME280_temperature;BME280_humidity;BME280_pressure;Samples;Min_cycle;Max_cycle;Signal;HPM_P1;HPM_P2
2022/01/19 00:00:34;;;;;;;;;;;5.60;99.90;;;;;;4948928;29;19927;-82
2022/01/19 00:03:02;;;;;;;;;;;5.60;99.90;;;;;;5005924;28;19937;-82
2022/01/19 00:05:34;;;;;;;;;;;4.10;99.90;;;;;;4972188;28;19945;-82
2022/01/19 00:08:06;;;;;;;;;;;5.60;99.90;;;;;;4972368;28;19926;-81
2022/01/19 00:10:37;;;;;;;;;;;5.60;99.90;;;;;;4971467;28;19937;-81
2022/01/19 00:13:05;;;;;;;;;;;5.70;99.90;;;;;;4958835;29;19930;-83
2022/01/19 00:15:33;;;;;;;;;;;5.70;99.90;;;;;;4968740;28;19930;-82
2022/01/19 00:18:05;;;;;;;;;;;5.70;99.90;;;;;;4968558;28;19933;-81
2022/01/19 00:20:48;;;;;;;;;;;5.70;99.90;;;;;;4968526;28;19926;-82
2022/01/19 00:23:21;;;;;;;;;;;7.40;99.90;;;;;;4961135;29;19921;-82
2022/01/19 00:25:51;;;;;;;;;;;5.60;99.90;;;;;;4971320;29;19932;-82
2022/01/19 00:28:21;;;;;;;;;;;5.60;99.90;;;;;;4952168;29;19942;-81
2022/01/19 00:30:51;;;;;;;;;;;5.60;99.90;;;;;;4950861;29;19937;-81
2022/01/19 00:33:19;;;;;;;;;;;5.50;99.90;;;;;;4967871;28;19931;-81
2022/01/19 00:35:48;;;;;;;;;;;5.50;99.90;;;;;;4919903;28;19940;-81
2022/01/19 00:38:17;;;;;;;;;;;5.60;99.90;;;;;;4952290;29;19914;-83
2022/01/19 00:40:46;;;;;;;;;;;5.50;99.90;;;;;;4967011;28;19926;-82
2022/01/19 00:43:15;;;;;;;;;;;5.50;99.90;;;;;;4974401;28;19930;-81
2022/01/19 00:45:47;;;;;;;;;;;5.50;99.90;;;;;;5054989;28;19930;-82
2022/01/19 00:48:27;;;;;;;;;;;5.50;99.90;;;;;;4949782;29;19930;-82
2022/01/19 00:50:57;;;;;;;;;;;5.50;99.90;;;;;;4952558;29;20447;-81
2022/01/19 00:53:26;;;;;;;;;;;4.40;99.90;;;;;;4952192;28;19926;-81
2022/01/19 00:55:56;;;;;;;;;;;5.40;99.90;;;;;;4952477;28;19933;-82
2022/01/19 00:58:26;;;;;;;;;;;5.80;99.90;;;;;;4921286;29;19927;-82
2022/01/19 01:00:56;;;;;;;;;;;5.40;99.90;;;;;;4968702;29;19930;-81
2022/01/19 01:03:24;;;;;;;;;;;5.40;99.90;;;;;;5012320;28;19927;-81
2022/01/19 01:05:53;;;;;;;;;;;5.40;99.90;;;;;;4967321;29;19937;-82
2022/01/19 01:08:21;;;;;;;;;;;5.50;99.90;;;;;;4969508;29;19938;-81
2022/01/19 01:10:51;;;;;;;;;;;5.60;99.90;;;;;;4967426;29;19931;-82
2022/01/19 01:15:25;;;;;;;;;;;6.00;99.90;;;;;;4965908;29;19935;-82
2022/01/19 01:16:31;;;;;;;;;;;5.50;99.90;;;;;;4965899;29;19927;-81
2022/01/19 01:19:08;;;;;;;;;;;5.50;99.90;;;;;;4948696;29;19937;-82
2022/01/19 01:21:38;;;;;;;;;;;5.60;99.90;;;;;;4946136;29;19931;-81
2022/01/19 01:24:07;;;;;;;;;;;5.60;99.90;;;;;;5045442;28;19927;-82
2022/01/19 01:26:36;;;;;;;;;;;5.60;99.90;;;;;;4929262;29;19934;-81
2022/01/19 01:29:03;;;;;;;;;;;4.60;99.90;;;;;;4961226;28;19926;-81
2022/01/19 01:31:31;;;;;;;;;;;5.70;99.90;;;;;;4947221;28;19927;-82
2022/01/19 01:33:58;;;;;;;;;;;5.80;99.90;;;;;;4944840;28;19931;-82
2022/01/19 01:36:28;;;;;;;;;;;5.60;99.90;;;;;;4945365;29;20101;-83
2022/01/19 01:38:57;;;;;;;;;;;5.60;99.90;;;;;;4945231;28;20536;-81
2022/01/19 01:41:24;;;;;;;;;;;5.60;99.90;;;;;;4944200;29;19934;-81
2022/01/19 01:44:05;;;;;;;;;;;5.60;99.90;;;;;;4956910;28;19926;-81
2022/01/19 01:46:47;;;;;;;;;;;5.60;99.90;;;;;;4943065;28;19935;-82
2022/01/19 01:49:26;;;;;;;;;;;5.60;99.90;;;;;;4925358;28;19930;-81
2022/01/19 01:54:44;;;;;;;;;;;5.70;99.90;;;;;;4962485;29;20277;-83
2022/01/19 01:57:13;;;;;;;;;;;5.70;99.90;;;;;;4941465;28;19935;-83
2022/01/19 01:59:41;;;;;;;;;;;5.70;99.90;;;;;;4957824;28;19931;-81
2022/01/19 02:02:18;;;;;;;;;;;5.70;99.90;;;;;;4926087;28;19937;-82
2022/01/19 02:04:46;;;;;;;;;;;5.60;99.90;;;;;;4961007;29;19926;-81
2022/01/19 02:09:53;;;;;;;;;;;5.70;99.90;;;;;;4944252;28;20404;-82
2022/01/19 02:23:49;;;;;;;;;;;6.50;99.90;;;;;;4963169;29;20371;-82
2022/01/19 02:26:34;;;;;;;;;;;5.80;99.90;;;;;;4961502;29;19946;-81
2022/01/19 02:42:43;;;;;;;;;;;5.70;99.90;;;;;;4962264;28;20419;-82
2022/01/19 02:50:31;;;;;;;;;;;5.70;99.90;;;;;;4968269;28;19937;-81
2022/01/19 02:52:59;;;;;;;;;;;5.70;99.90;;;;;;4968327;28;19920;-80
2022/01/19 02:55:29;;;;;;;;;;;5.70;99.90;;;;;;4982824;28;19933;-82
2022/01/19 02:57:58;;;;;;;;;;;5.70;99.90;;;;;;4968396;28;19930;-82
2022/01/19 03:08:50;;;;;;;;;;;5.60;99.90;;;;;;4988104;28;19929;-82
2022/01/19 03:11:20;;;;;;;;;;;5.60;99.90;;;;;;4996655;28;20419;-82
2022/01/19 03:13:48;;;;;;;;;;;5.60;99.90;;;;;;4945976;29;19930;-81
2022/01/19 03:16:18;;;;;;;;;;;5.60;99.90;;;;;;5021549;28;20502;-82
2022/01/19 03:18:47;;;;;;;;;;;5.60;99.90;;;;;;5023894;28;19941;-82
2022/01/19 03:21:17;;;;;;;;;;;5.50;99.90;;;;;;5043234;28;19926;-81
2022/01/19 03:23:46;;;;;;;;;;;5.50;99.90;;;;;;4947676;28;19933;-82
2022/01/19 03:26:14;;;;;;;;;;;5.50;99.90;;;;;;4946789;29;20255;-81
2022/01/19 03:29:01;;;;;;;;;;;5.50;99.90;;;;;;4963314;29;19926;-83
2022/01/19 03:31:28;;;;;;;;;;;5.60;99.90;;;;;;5025348;28;19934;-82
2022/01/19 03:33:56;;;;;;;;;;;5.50;99.90;;;;;;4943673;29;19926;-81
2022/01/19 03:36:25;;;;;;;;;;;5.50;99.90;;;;;;4945621;29;19930;-82
2022/01/19 03:38:53;;;;;;;;;;;5.60;99.90;;;;;;4929215;28;20718;-83
2022/01/19 03:41:20;;;;;;;;;;;5.60;99.90;;;;;;4959770;28;19934;-81
2022/01/19 03:43:48;;;;;;;;;;;5.50;99.90;;;;;;4953774;28;20444;-83
2022/01/19 03:46:21;;;;;;;;;;;5.50;99.90;;;;;;4958508;28;19931;-81
2022/01/19 03:48:57;;;;;;;;;;;5.60;99.90;;;;;;4945561;28;19938;-82
2022/01/19 03:51:25;;;;;;;;;;;5.60;99.90;;;;;;4946285;29;19930;-81
2022/01/19 03:53:55;;;;;;;;;;;5.60;99.90;;;;;;4963474;29;19926;-83
2022/01/19 03:56:23;;;;;;;;;;;5.60;99.90;;;;;;4945912;28;19933;-82
2022/01/19 03:58:52;;;;;;;;;;;5.60;99.90;;;;;;4946079;29;19937;-82
2022/01/19 04:01:19;;;;;;;;;;;6.20;99.90;;;;;;4945531;28;19935;-81
2022/01/19 04:06:29;;;;;;;;;;;5.70;99.90;;;;;;4953896;28;19930;-83
2022/01/19 04:08:56;;;;;;;;;;;5.70;99.90;;;;;;4968688;29;19927;-82
2022/01/19 04:11:25;;;;;;;;;;;5.40;99.90;;;;;;4932283;28;19937;-83
2022/01/19 04:16:25;;;;;;;;;;;5.80;99.90;;;;;;4949966;28;19927;-82
2022/01/19 04:19:21;;;;;;;;;;;5.70;99.90;;;;;;4951924;29;19927;-82
2022/01/19 04:25:32;;;;;;;;;;;5.50;99.90;;;;;;4965959;28;19919;-82
2022/01/19 04:28:07;;;;;;;;;;;5.80;99.90;;;;;;4949442;28;19933;-82
2022/01/19 04:30:38;;;;;;;;;;;5.80;99.90;;;;;;4945345;28;19927;-82
2022/01/19 04:33:10;;;;;;;;;;;5.80;99.90;;;;;;4951910;29;19927;-82
2022/01/19 04:35:45;;;;;;;;;;;5.80;99.90;;;;;;4966998;29;19930;-82
2022/01/19 05:05:29;;;;;;;;;;;5.90;99.90;;;;;;5062606;28;19921;-86
2022/01/19 05:08:03;;;;;;;;;;;6.00;99.90;;;;;;5038557;28;19943;-85
2022/01/19 05:15:55;;;;;;;;;;;6.00;99.90;;;;;;5053977;28;19931;-86
2022/01/19 05:18:23;;;;;;;;;;;6.00;99.90;;;;;;5051783;28;19921;-87
2022/01/19 05:20:51;;;;;;;;;;;6.00;99.90;;;;;;5049077;28;19924;-86
2022/01/19 05:23:39;;;;;;;;;;;6.00;99.90;;;;;;5036813;28;19939;-87
2022/01/19 05:26:07;;;;;;;;;;;6.10;99.90;;;;;;5031459;28;19928;-87
2022/01/19 05:28:39;;;;;;;;;;;6.10;99.90;;;;;;5064904;28;19928;-87
2022/01/19 05:31:07;;;;;;;;;;;6.10;99.90;;;;;;5043760;28;19985;-86
2022/01/19 05:33:36;;;;;;;;;;;6.10;99.90;;;;;;4698601;28;10000169;-87
2022/01/19 05:36:04;;;;;;;;;;;6.00;99.90;;;;;;5022294;28;19925;-87
2022/01/19 05:38:53;;;;;;;;;;;6.10;99.90;;;;;;5058775;28;19931;-87
2022/01/19 05:41:40;;;;;;;;;;;6.10;99.90;;;;;;5027480;28;19935;-87
2022/01/19 05:44:11;;;;;;;;;;;6.20;99.90;;;;;;5054675;28;20377;-87
2022/01/19 05:46:39;;;;;;;;;;;6.20;99.90;;;;;;5022804;28;20497;-87
2022/01/19 05:49:07;;;;;;;;;;;6.20;99.90;;;;;;5037945;28;19928;-86
2022/01/19 05:51:35;;;;;;;;;;;6.20;99.90;;;;;;5037443;28;19924;-86
2022/01/19 05:54:03;;;;;;;;;;;6.20;99.90;;;;;;5048807;28;19935;-86
2022/01/19 05:56:31;;;;;;;;;;;6.20;99.90;;;;;;5058039;28;19912;-87
2022/01/19 05:59:22;;;;;;;;;;;6.30;99.90;;;;;;5055345;28;19928;-87
2022/01/19 06:01:49;;;;;;;;;;;5.90;99.90;;;;;;5015662;28;19934;-87
2022/01/19 06:04:18;;;;;;;;;;;6.30;99.90;;;;;;5001415;28;19926;-88
2022/01/19 06:07:04;;;;;;;;;;;6.30;99.90;;;;;;5053578;28;19925;-88
2022/01/19 06:10:00;;;;;;;;;;;6.30;99.90;;;;;;5054635;28;19925;-88
2022/01/19 06:12:31;;;;;;;;;;;6.30;99.90;;;;;;5015701;28;19926;-87
2022/01/19 06:15:01;;;;;;;;;;;6.30;99.90;;;;;;5064800;28;19935;-88
2022/01/19 06:17:31;;;;;;;;;;;6.40;99.90;;;;;;5001594;28;19926;-87
2022/01/19 06:20:00;;;;;;;;;;;6.30;99.90;;;;;;5036048;28;19925;-88
2022/01/19 06:22:29;;;;;;;;;;;6.40;99.90;;;;;;5034070;28;19936;-87
2022/01/19 06:25:01;;;;;;;;;;;6.30;99.90;;;;;;5015004;28;19936;-88
2022/01/19 06:27:30;;;;;;;;;;;6.30;99.90;;;;;;5031890;28;19920;-87
2022/01/19 06:30:03;;;;;;;;;;;6.30;99.90;;;;;;5002241;28;19925;-87
2022/01/19 06:32:34;;;;;;;;;;;6.30;99.90;;;;;;5068269;28;19935;-88
2022/01/19 06:35:02;;;;;;;;;;;6.30;99.90;;;;;;5034247;28;19917;-87
2022/01/19 06:37:49;;;;;;;;;;;6.30;99.90;;;;;;5049778;28;19918;-88
2022/01/19 06:40:27;;;;;;;;;;;6.40;99.90;;;;;;5022436;28;19909;-88
2022/01/19 06:43:03;;;;;;;;;;;6.30;99.90;;;;;;5037938;28;19935;-89
2022/01/19 06:45:31;;;;;;;;;;;6.30;99.90;;;;;;5034649;28;19913;-89
2022/01/19 06:48:02;;;;;;;;;;;6.30;99.90;;;;;;5006134;28;20273;-87
2022/01/19 06:50:31;;;;;;;;;;;6.30;99.90;;;;;;5024242;28;19935;-88
2022/01/19 06:53:01;;;;;;;;;;;6.30;99.90;;;;;;5019197;28;19935;-86
2022/01/19 06:55:30;;;;;;;;;;;6.00;99.90;;;;;;5018915;28;19936;-88
2022/01/19 06:57:59;;;;;;;;;;;6.20;99.90;;;;;;5023803;28;19933;-88
2022/01/19 07:00:37;;;;;;;;;;;6.20;99.90;;;;;;5009928;28;19936;-89
2022/01/19 07:03:13;;;;;;;;;;;6.10;99.90;;;;;;5028903;28;20306;-89
2022/01/19 07:05:58;;;;;;;;;;;6.40;99.90;;;;;;5013553;28;19932;-89
2022/01/19 07:08:47;;;;;;;;;;;6.20;99.90;;;;;;5026393;28;19925;-89
2022/01/19 07:11:15;;;;;;;;;;;6.10;99.90;;;;;;5013917;28;19925;-89
2022/01/19 07:13:44;;;;;;;;;;;6.20;99.90;;;;;;5012962;28;19932;-89
2022/01/19 07:16:12;;;;;;;;;;;6.20;99.90;;;;;;5011880;28;19940;-89
2022/01/19 07:18:42;;;;;;;;;;;6.20;99.90;;;;;;5026266;28;19929;-91
2022/01/19 07:21:15;;;;;;;;;;;6.20;99.90;;;;;;5022708;28;19925;-89
2022/01/19 07:23:52;;;;;;;;;;;6.30;99.90;;;;;;5023367;28;19932;-89
2022/01/19 07:26:21;;;;;;;;;;;6.30;99.90;;;;;;5016815;28;19928;-90
2022/01/19 07:28:49;;;;;;;;;;;6.20;99.90;;;;;;5039689;28;19929;-87
2022/01/19 07:31:17;;;;;;;;;;;6.30;99.90;;;;;;5038011;28;19925;-89
2022/01/19 07:33:49;;;;;;;;;;;6.40;99.90;;;;;;5007958;28;19936;-87
2022/01/19 07:36:17;;;;;;;;;;;6.40;99.90;;;;;;5003589;28;19937;-87
2022/01/19 07:38:49;;;;;;;;;;;6.40;99.90;;;;;;5008288;28;19925;-87
2022/01/19 07:41:18;;;;;;;;;;;6.40;99.90;;;;;;5029062;28;19929;-89
2022/01/19 07:43:52;;;;;;;;;;;6.40;99.90;;;;;;5041848;28;19925;-91
2022/01/19 07:46:26;;;;;;;;;;;6.40;99.90;;;;;;5020339;28;19929;-86
2022/01/19 07:49:17;;;;;;;;;;;6.40;99.90;;;;;;4995265;28;19941;-92
2022/01/19 07:51:56;;;;;;;;;;;6.50;99.90;;;;;;5027163;28;20409;-89
2022/01/19 07:54:29;;;;;;;;;;;6.40;99.90;;;;;;5055323;28;19933;-88
2022/01/19 07:57:04;;;;;;;;;;;6.10;99.90;;;;;;5010337;28;20375;-88
2022/01/19 08:00:09;;;;;;;;;;;6.40;99.90;;;;;;4991601;28;19937;-90
2022/01/19 08:02:43;;;;;;;;;;;6.30;99.90;;;;;;5022787;28;20474;-87
2022/01/19 08:05:31;;;;;;;;;;;6.20;99.90;;;;;;5040928;28;19925;-89
2022/01/19 08:08:05;;;;;;;;;;;6.30;99.90;;;;;;5018948;28;19925;-87
2022/01/19 08:10:42;;;;;;;;;;;6.30;99.90;;;;;;5018623;28;19921;-87
2022/01/19 08:13:14;;;;;;;;;;;6.20;99.90;;;;;;5054040;28;19932;-88
2022/01/19 08:15:43;;;;;;;;;;;6.20;99.90;;;;;;5020814;28;19926;-89
2022/01/19 08:18:12;;;;;;;;;;;6.10;99.90;;;;;;5038617;28;19932;-86
2022/01/19 08:20:44;;;;;;;;;;;6.10;99.90;;;;;;5036182;28;19933;-86
2022/01/19 08:23:14;;;;;;;;;;;6.10;99.90;;;;;;5036637;28;19933;-86
2022/01/19 08:25:57;;;;;;;;;;;6.00;99.90;;;;;;5016702;28;19936;-84
2022/01/19 08:28:25;;;;;;;;;;;6.20;99.90;;;;;;5019769;28;19929;-87
2022/01/19 08:30:56;;;;;;;;;;;6.10;99.90;;;;;;4991119;28;19929;-88
2022/01/19 08:33:53;;;;;;;;;;;6.20;99.90;;;;;;5039662;28;19941;-87
2022/01/19 08:36:30;;;;;;;;;;;6.10;99.90;;;;;;5006123;28;19925;-84
2022/01/19 08:39:08;;;;;;;;;;;6.10;99.90;;;;;;5040150;28;19943;-88
2022/01/19 08:41:39;;;;;;;;;;;6.10;99.90;;;;;;5003311;28;19933;-91
2022/01/19 08:44:07;;;;;;;;;;;6.10;99.90;;;;;;5006942;28;19926;-83
2022/01/19 08:46:39;;;;;;;;;;;6.60;99.90;;;;;;5042270;28;19936;-87
2022/01/19 08:49:26;;;;;;;;;;;6.20;99.90;;;;;;5048155;28;19940;-88
2022/01/19 08:52:16;;;;;;;;;;;6.20;99.90;;;;;;5043637;28;20465;-86
2022/01/19 08:55:03;;;;;;;;;;;6.20;99.90;;;;;;5024304;28;19925;-88
2022/01/19 08:57:31;;;;;;;;;;;6.30;99.90;;;;;;5054393;28;19936;-84
2022/01/19 09:00:01;;;;;;;;;;;6.30;99.90;;;;;;5023044;28;19925;-87
2022/01/19 09:02:29;;;;;;;;;;;6.30;99.90;;;;;;5024044;28;20422;-86
2022/01/19 09:04:57;;;;;;;;;;;6.30;99.90;;;;;;5023673;28;19925;-90
2022/01/19 09:07:30;;;;;;;;;;;6.30;99.90;;;;;;5038570;28;19925;-86
2022/01/19 09:09:57;;;;;;;;;;;6.30;99.90;;;;;;5038264;28;19929;-89
2022/01/19 09:12:29;;;;;;;;;;;6.30;99.90;;;;;;5041659;28;19929;-88
2022/01/19 09:14:58;;;;;;;;;;;6.30;99.90;;;;;;5025115;28;19932;-93
2022/01/19 09:17:37;;;;;;;;;;;6.30;99.90;;;;;;5022556;28;19933;-84
2022/01/19 09:20:06;;;;;;;;;;;6.30;99.90;;;;;;5025165;28;19928;-89
2022/01/19 09:22:38;;;;;;;;;;;6.30;99.90;;;;;;5007985;28;19929;-88
2022/01/19 09:25:08;;;;;;;;;;;6.10;99.90;;;;;;5024519;28;19925;-89
2022/01/19 09:27:38;;;;;;;;;;;6.30;99.90;;;;;;5008654;28;19929;-87
2022/01/19 09:30:10;;;;;;;;;;;6.30;99.90;;;;;;5006660;28;19928;-88
2022/01/19 09:32:42;;;;;;;;;;;6.30;99.90;;;;;;5025436;28;19952;-87
2022/01/19 09:35:22;;;;;;;;;;;6.60;99.90;;;;;;5042687;28;19936;-88
2022/01/19 09:37:53;;;;;;;;;;;5.90;99.90;;;;;;5026008;28;19940;-90
2022/01/19 09:40:31;;;;;;;;;;;6.50;99.90;;;;;;5060972;28;19928;-85
2022/01/19 09:43:22;;;;;;;;;;;6.60;99.90;;;;;;5029813;28;19929;-85
2022/01/19 09:45:56;;;;;;;;;;;6.70;99.90;;;;;;5007881;28;19925;-85
2022/01/19 09:48:24;;;;;;;;;;;6.80;99.90;;;;;;5044903;28;19925;-89
2022/01/19 09:50:54;;;;;;;;;;;6.90;99.90;;;;;;5038704;28;19932;-84
2022/01/19 09:53:25;;;;;;;;;;;5.80;99.90;;;;;;5056443;28;20189;-87
2022/01/19 09:55:57;;;;;;;;;;;7.00;99.90;;;;;;5003654;28;19925;-89
2022/01/19 09:58:24;;;;;;;;;;;7.10;99.90;;;;;;5042297;28;19939;-86
2022/01/19 10:00:52;;;;;;;;;;;7.20;99.90;;;;;;5027332;28;20410;-86
2022/01/19 10:03:22;;;;;;;;;;;8.50;99.90;;;;;;5056759;28;19940;-85
2022/01/19 10:05:56;;;;;;;;;;;7.50;99.90;;;;;;5042175;28;19953;-85
2022/01/19 10:08:27;;;;;;;;;;;7.60;99.90;;;;;;5037842;28;19929;-86
2022/01/19 10:11:05;;;;;;;;;;;7.30;99.90;;;;;;5038117;28;19948;-85
2022/01/19 10:19:20;;;;;;;;;;;7.50;99.90;;;;;;5058413;28;20314;-90
2022/01/19 10:22:15;;;;;;;;;;;7.50;99.90;;;;;;5041856;28;19932;-88
2022/01/19 10:25:09;;;;;;;;;;;8.90;99.90;;;;;;5024410;28;19933;-88
2022/01/19 10:27:42;;;;;;;;;;;7.60;99.90;;;;;;5028100;28;19929;-87
2022/01/19 10:30:15;;;;;;;;;;;7.60;99.90;;;;;;5045425;28;19929;-87
2022/01/19 10:32:49;;;;;;;;;;;7.70;99.90;;;;;;5019539;28;19925;-86
2022/01/19 10:35:24;;;;;;;;;;;7.70;99.90;;;;;;5047607;28;19929;-87
2022/01/19 10:38:05;;;;;;;;;;;7.70;99.90;;;;;;5030371;28;20401;-88
2022/01/19 10:40:36;;;;;;;;;;;7.20;99.90;;;;;;5012629;28;19936;-87
2022/01/19 10:43:25;;;;;;;;;;;7.60;99.90;;;;;;5027822;28;20272;-87
2022/01/19 10:45:57;;;;;;;;;;;7.60;99.90;;;;;;5030908;28;19924;-86
2022/01/19 10:48:38;;;;;;;;;;;7.50;99.90;;;;;;5042315;28;19932;-88
2022/01/19 10:51:13;;;;;;;;;;;7.40;99.90;;;;;;5030850;28;19944;-85
2022/01/19 10:53:43;;;;;;;;;;;7.50;99.90;;;;;;5007084;28;19936;-87
2022/01/19 10:56:38;;;;;;;;;;;7.50;99.90;;;;;;5022444;28;19925;-85
2022/01/19 10:59:10;;;;;;;;;;;7.60;99.90;;;;;;5021756;28;19936;-85
2022/01/19 11:01:41;;;;;;;;;;;7.70;99.90;;;;;;5019615;28;19936;-88
2022/01/19 11:04:28;;;;;;;;;;;7.70;99.90;;;;;;5022172;28;19936;-85
2022/01/19 11:07:01;;;;;;;;;;;7.70;99.90;;;;;;5052877;28;19926;-86
2022/01/19 11:09:30;;;;;;;;;;;7.70;99.90;;;;;;5021436;28;19925;-88
2022/01/19 11:12:16;;;;;;;;;;;7.80;99.90;;;;;;5001833;28;19936;-88
2022/01/19 11:14:46;;;;;;;;;;;7.90;99.90;;;;;;5043837;28;19929;-90
2022/01/19 11:17:36;;;;;;;;;;;8.00;99.90;;;;;;5026250;28;19929;-90
2022/01/19 11:20:08;;;;;;;;;;;8.20;99.90;;;;;;5029503;28;19925;-90
2022/01/19 11:22:35;;;;;;;;;;;8.10;99.90;;;;;;4994039;28;19927;-85
2022/01/19 11:25:08;;;;;;;;;;;8.20;99.90;;;;;;5007623;28;19938;-88
2022/01/19 11:27:41;;;;;;;;;;;8.30;99.90;;;;;;5040144;28;19925;-89
2022/01/19 11:30:23;;;;;;;;;;;8.30;99.90;;;;;;5044100;28;20378;-89
2022/01/19 11:33:09;;;;;;;;;;;7.90;99.90;;;;;;5058584;28;20660;-86
2022/01/19 11:35:39;;;;;;;;;;;8.40;99.90;;;;;;5063333;28;19925;-91
2022/01/19 11:38:25;;;;;;;;;;;8.40;99.90;;;;;;5033773;28;19926;-84
2022/01/19 11:40:55;;;;;;;;;;;8.50;99.90;;;;;;5021709;28;19936;-89
2022/01/19 11:43:26;;;;;;;;;;;8.50;99.90;;;;;;5007523;28;19955;-88
2022/01/19 11:45:55;;;;;;;;;;;8.60;99.90;;;;;;5039970;28;19925;-88
2022/01/19 11:48:24;;;;;;;;;;;8.70;99.90;;;;;;5056193;28;19933;-87
2022/01/19 11:51:07;;;;;;;;;;;8.80;99.90;;;;;;5024977;28;19929;-91
2022/01/19 11:53:55;;;;;;;;;;;8.90;99.90;;;;;;5023292;28;19929;-86
2022/01/19 11:56:24;;;;;;;;;;;9.00;99.90;;;;;;5020937;28;20399;-90
2022/01/19 11:59:05;;;;;;;;;;;9.00;99.90;;;;;;5058290;28;19925;-87
2022/01/19 12:01:36;;;;;;;;;;;9.00;99.90;;;;;;5044796;28;19929;-90
2022/01/19 12:04:13;;;;;;;;;;;9.00;99.90;;;;;;5027421;28;19925;-89
2022/01/19 12:06:43;;;;;;;;;;;9.00;99.90;;;;;;5026191;28;20302;-89
2022/01/19 12:09:12;;;;;;;;;;;8.90;99.90;;;;;;5041970;28;19936;-90
2022/01/19 12:11:48;;;;;;;;;;;9.10;99.90;;;;;;5025025;28;19929;-87
2022/01/19 12:14:27;;;;;;;;;;;9.20;99.90;;;;;;5011245;28;19935;-89
2022/01/19 12:17:14;;;;;;;;;;;9.30;99.90;;;;;;5021149;28;19925;-88
2022/01/19 12:19:43;;;;;;;;;;;9.50;99.90;;;;;;5038281;28;20299;-90
2022/01/19 12:22:20;;;;;;;;;;;8.20;99.90;;;;;;5009172;28;19936;-88
2022/01/19 12:24:58;;;;;;;;;;;9.60;99.90;;;;;;5025089;28;20288;-89
2022/01/19 12:27:34;;;;;;;;;;;9.70;99.90;;;;;;5042636;28;20363;-88
2022/01/19 12:30:08;;;;;;;;;;;9.80;99.90;;;;;;5023271;28;19925;-88
2022/01/19 12:32:40;;;;;;;;;;;9.80;99.90;;;;;;5026148;28;19929;-86
2022/01/19 12:35:14;;;;;;;;;;;9.80;99.90;;;;;;5052176;28;19937;-91
2022/01/19 12:37:58;;;;;;;;;;;9.80;99.90;;;;;;5032908;28;19925;-89
2022/01/19 12:40:46;;;;;;;;;;;9.90;99.90;;;;;;5056323;28;19932;-92
2022/01/19 12:43:33;;;;;;;;;;;9.80;99.90;;;;;;5031297;28;19936;-87
2022/01/19 12:46:05;;;;;;;;;;;9.70;99.90;;;;;;5049571;28;19931;-88
2022/01/19 12:48:37;;;;;;;;;;;9.70;99.90;;;;;;5028869;28;19932;-87
2022/01/19 12:51:27;;;;;;;;;;;9.70;99.90;;;;;;5022021;28;19935;-88
2022/01/19 12:53:57;;;;;;;;;;;9.60;99.90;;;;;;4692660;28;10000054;-87
2022/01/19 12:56:58;;;;;;;;;;;9.80;99.90;;;;;;4676666;28;10000802;-90
2022/01/19 12:59:27;;;;;;;;;;;9.90;99.90;;;;;;5023054;28;19940;-91
2022/01/19 13:01:56;;;;;;;;;;;9.60;99.90;;;;;;5005839;28;19925;-89
2022/01/19 13:04:29;;;;;;;;;;;9.70;99.90;;;;;;5011250;28;19932;-90
2022/01/19 13:07:20;;;;;;;;;;;9.60;99.90;;;;;;5028777;28;19925;-90
2022/01/19 13:10:03;;;;;;;;;;;9.70;99.90;;;;;;5028845;28;19925;-90
2022/01/19 13:12:36;;;;;;;;;;;9.70;99.90;;;;;;5041829;28;19929;-89
2022/01/19 13:15:23;;;;;;;;;;;9.70;99.90;;;;;;5011352;28;19925;-92
2022/01/19 13:18:18;;;;;;;;;;;9.70;99.90;;;;;;5043988;28;20384;-89
2022/01/19 13:21:21;;;;;;;;;;;9.80;99.90;;;;;;5013567;28;19932;-92
2022/01/19 13:24:10;;;;;;;;;;;9.70;99.90;;;;;;5008987;28;19929;-90
2022/01/19 13:26:48;;;;;;;;;;;9.70;99.90;;;;;;5051918;28;19964;-87
2022/01/19 13:29:21;;;;;;;;;;;9.70;99.90;;;;;;5010639;28;19959;-88
2022/01/19 13:32:19;;;;;;;;;;;9.60;99.90;;;;;;5020070;28;19932;-91
2022/01/19 13:34:53;;;;;;;;;;;9.60;99.90;;;;;;5024228;28;20307;-87
2022/01/19 13:37:39;;;;;;;;;;;9.50;99.90;;;;;;5009778;28;20036;-89
2022/01/19 13:40:13;;;;;;;;;;;9.30;99.90;;;;;;5018536;28;19925;-86
2022/01/19 13:42:45;;;;;;;;;;;9.50;99.90;;;;;;5053824;28;19925;-88
2022/01/19 13:45:38;;;;;;;;;;;9.10;99.90;;;;;;5040925;28;20406;-89
2022/01/19 13:50:58;;;;;;;;;;;9.00;99.90;;;;;;5038802;28;20306;-87
2022/01/19 13:53:40;;;;;;;;;;;8.90;99.90;;;;;;5043251;28;19925;-87
2022/01/19 13:56:11;;;;;;;;;;;8.80;99.90;;;;;;4987479;28;19932;-89
2022/01/19 13:58:50;;;;;;;;;;;8.80;99.90;;;;;;5021731;28;19952;-87
2022/01/19 14:01:23;;;;;;;;;;;8.80;99.90;;;;;;5022596;28;19925;-88
2022/01/19 14:03:58;;;;;;;;;;;8.80;99.90;;;;;;5021419;28;19929;-89
2022/01/19 14:06:31;;;;;;;;;;;8.80;99.90;;;;;;5040896;28;19936;-89
2022/01/19 14:09:09;;;;;;;;;;;8.70;99.90;;;;;;5013712;28;20083;-89
2022/01/19 14:11:40;;;;;;;;;;;8.70;99.90;;;;;;5029509;28;19926;-89
2022/01/19 14:14:20;;;;;;;;;;;8.70;99.90;;;;;;4996133;28;20406;-88
2022/01/19 14:16:51;;;;;;;;;;;7.80;99.90;;;;;;5024500;28;19932;-90
2022/01/19 14:19:22;;;;;;;;;;;8.80;99.90;;;;;;5041647;28;19932;-92
2022/01/19 14:22:12;;;;;;;;;;;8.80;99.90;;;;;;5041764;28;20159;-90
2022/01/19 14:24:54;;;;;;;;;;;8.80;99.90;;;;;;5043725;28;19932;-92
2022/01/19 14:27:54;;;;;;;;;;;8.80;99.90;;;;;;5011718;28;19929;-88
2022/01/19 14:30:30;;;;;;;;;;;8.90;99.90;;;;;;5041416;28;19936;-90
2022/01/19 14:33:05;;;;;;;;;;;8.90;99.90;;;;;;5037885;28;19924;-87
2022/01/19 14:35:38;;;;;;;;;;;9.00;99.90;;;;;;5021891;28;19934;-88
2022/01/19 14:38:27;;;;;;;;;;;9.00;99.90;;;;;;5021573;28;19936;-87
2022/01/19 14:41:00;;;;;;;;;;;9.00;99.90;;;;;;5018472;28;19925;-88
2022/01/19 14:43:47;;;;;;;;;;;9.00;99.90;;;;;;5021858;28;20560;-88
2022/01/19 14:46:45;;;;;;;;;;;8.90;99.90;;;;;;5037744;28;19925;-89
2022/01/19 14:49:24;;;;;;;;;;;8.80;99.90;;;;;;5014689;28;19948;-90
2022/01/19 14:51:52;;;;;;;;;;;8.90;99.90;;;;;;5018697;28;19929;-87
2022/01/19 14:54:23;;;;;;;;;;;8.80;99.90;;;;;;5004477;28;19932;-87
2022/01/19 14:56:52;;;;;;;;;;;8.90;99.90;;;;;;4672236;28;10000508;-88
2022/01/19 14:59:22;;;;;;;;;;;8.90;99.90;;;;;;5025941;28;19925;-87
2022/01/19 15:01:59;;;;;;;;;;;8.90;99.90;;;;;;4998911;28;19925;-87
2022/01/19 15:04:29;;;;;;;;;;;8.90;99.90;;;;;;5037688;28;19932;-85
2022/01/19 15:07:00;;;;;;;;;;;8.90;99.90;;;;;;5052446;28;19933;-87
2022/01/19 15:09:36;;;;;;;;;;;9.00;99.90;;;;;;5044838;28;19961;-92
2022/01/19 15:12:27;;;;;;;;;;;9.20;99.90;;;;;;4993890;28;19925;-91
2022/01/19 15:15:18;;;;;;;;;;;9.30;99.90;;;;;;5021924;28;19930;-91
2022/01/19 15:17:48;;;;;;;;;;;9.50;99.90;;;;;;5038699;28;19929;-90
2022/01/19 15:23:59;;;;;;;;;;;;;;;;;;;;;
2022/01/19 15:27:44;;;;;;;;;;;;;;;;;;;;;
2022/01/19 15:31:10;;;;;;;;;;;;;;;;;;;;;
2022/01/19 15:34:22;;;;;;;;;;;9.20;99.90;;;;;;4981125;28;19926;-85
2022/01/19 15:38:18;;;;;;;;;;;9.60;99.90;;;;;;4992709;28;19941;-86
2022/01/19 15:42:25;;;;;;;;;;;;;;;;;;;;;
2022/01/19 15:50:33;;;;;;;;;;;;;;;;;;;;;
2022/01/19 15:57:27;;;;;;;;;;;9.70;99.90;;;;;;4889154;29;19994;-83
2022/01/19 16:04:34;;;;;;;;;;;;;;;;;;;;;
2022/01/19 16:08:49;;;;;;;;;;;9.50;99.90;;;;;;4931565;29;19937;-83
2022/01/19 16:12:24;;;;;;;;;;;7.70;99.90;;;;;;4920051;29;19938;-83
2022/01/19 16:16:21;;;;;;;;;;;9.30;99.90;;;;;;4569830;29;9999909;-84
2022/01/19 16:19:51;;;;;;;;;;;9.70;99.90;;;;;;4967226;28;19941;-84
2022/01/19 16:26:14;;;;;;;;;;;9.30;99.90;;;;;;4989182;28;19926;-83
2022/01/19 16:29:32;;;;;;;;;;;;;;;;;;;;;
2022/01/19 16:32:37;;;;;;;;;;;9.00;99.90;;;;;;5030669;28;19925;-84
2022/01/19 16:35:40;;;;;;;;;;;;;;;;;;;;;
2022/01/19 16:39:00;;;;;;;;;;;9.20;99.90;;;;;;5038578;28;19926;-84
2022/01/19 16:42:13;;;;;;;;;;;9.00;99.90;;;;;;4973353;28;19930;-87
2022/01/19 16:49:07;;;;;;;;;;;9.20;99.90;;;;;;5059627;28;19943;-91
2022/01/19 16:51:49;;;;;;;;;;;9.00;99.90;;;;;;5045193;28;19925;-91
2022/01/19 16:54:19;;;;;;;;;;;9.00;99.90;;;;;;5023242;28;19935;-90
2022/01/19 16:56:59;;;;;;;;;;;9.00;99.90;;;;;;5061424;28;20399;-89
2022/01/19 16:59:32;;;;;;;;;;;8.90;99.90;;;;;;5027864;28;19924;-90
2022/01/19 17:02:03;;;;;;;;;;;8.90;99.90;;;;;;5035233;28;19913;-90
2022/01/19 17:04:39;;;;;;;;;;;9.00;99.90;;;;;;5014636;28;19913;-87
2022/01/19 17:07:20;;;;;;;;;;;8.90;99.90;;;;;;5039612;28;19912;-91
2022/01/19 17:13:58;;;;;;;;;;;8.90;99.90;;;;;;4900598;28;19942;-83
2022/01/19 17:20:09;;;;;;;;;;;8.90;99.90;;;;;;4962172;28;19943;-85
2022/01/19 17:23:24;;;;;;;;;;;8.40;99.90;;;;;;4908820;29;19931;-83
2022/01/19 17:26:23;;;;;;;;;;;8.80;99.90;;;;;;4936968;28;19932;-85
2022/01/19 17:29:22;;;;;;;;;;;8.80;99.90;;;;;;4905609;29;19928;-83
2022/01/19 17:31:58;;;;;;;;;;;8.60;99.90;;;;;;4905944;28;20359;-85
2022/01/19 17:35:01;;;;;;;;;;;7.40;99.90;;;;;;4958506;28;19928;-83
2022/01/19 17:37:48;;;;;;;;;;;8.50;99.90;;;;;;4910798;28;19927;-83
2022/01/19 17:40:35;;;;;;;;;;;8.60;99.90;;;;;;4909068;29;19935;-83
2022/01/19 17:43:39;;;;;;;;;;;7.70;99.90;;;;;;4931686;28;19928;-84